sensor_id;sensor_type;location;lat;lon;timestamp;pressure;altitude;pressure_sealevel;temperature;humidity
14882;BME280;7533;51.278;12.588;2024-03-07T00:03:16;100976.06;;;25.79;52.19
14882;BME280;7533;51.278;12.588;2024-03-07T00:08:34;100978.03;;;25.77;52.47
14882;BME280;7533;51.278;12.588;2024-03-07T00:14:03;100977.91;;;25.78;52.57
14882;BME280;7533;51.278;12.588;2024-03-07T00:19:33;100974.34;;;25.78;52.36
14882;BME280;7533;51.278;12.588;2024-03-07T00:24:58;100971.63;;;25.78;52.53
14882;BME280;7533;51.278;12.588;2024-03-07T00:30:27;100980.75;;;25.77;52.64
14882;BME280;7533;51.278;12.588;2024-03-07T00:35:44;100975.22;;;25.78;52.38
14882;BME280;7533;51.278;12.588;2024-03-07T00:41:15;100970.78;;;25.77;52.50
14882;BME280;7533;51.278;12.588;2024-03-07T00:46:32;100968.19;;;25.76;52.56
14882;BME280;7533;51.278;12.588;2024-03-07T00:52:02;100966.34;;;25.76;52.81
14882;BME280;7533;51.278;12.588;2024-03-07T00:57:19;100962.63;;;25.77;52.70
14882;BME280;7533;51.278;12.588;2024-03-07T01:02:49;100952.97;;;25.73;52.65
14882;BME280;7533;51.278;12.588;2024-03-07T01:08:15;100950.59;;;25.69;52.75
14882;BME280;7533;51.278;12.588;2024-03-07T01:13:46;100941.00;;;25.65;52.96
14882;BME280;7533;51.278;12.588;2024-03-07T01:19:16;100932.56;;;25.56;53.01
14882;BME280;7533;51.278;12.588;2024-03-07T01:24:32;100949.19;;;25.52;53.20
14882;BME280;7533;51.278;12.588;2024-03-07T01:30:04;100941.66;;;25.44;53.27
14882;BME280;7533;51.278;12.588;2024-03-07T01:35:23;100932.88;;;25.41;53.48
14882;BME280;7533;51.278;12.588;2024-03-07T01:40:53;100938.75;;;25.35;53.33
14882;BME280;7533;51.278;12.588;2024-03-07T01:46:10;100937.25;;;25.30;53.67
14882;BME280;7533;51.278;12.588;2024-03-07T01:51:41;100934.06;;;25.25;53.59
14882;BME280;7533;51.278;12.588;2024-03-07T01:56:57;100931.91;;;25.18;53.72
14882;BME280;7533;51.278;12.588;2024-03-07T02:02:29;100926.94;;;25.12;53.99
14882;BME280;7533;51.278;12.588;2024-03-07T02:07:45;100924.69;;;25.05;54.19
14882;BME280;7533;51.278;12.588;2024-03-07T02:13:15;100918.72;;;25.00;54.52
14882;BME280;7533;51.278;12.588;2024-03-07T02:18:46;100912.91;;;24.94;54.45
14882;BME280;7533;51.278;12.588;2024-03-07T02:24:05;100909.88;;;24.86;54.66
14882;BME280;7533;51.278;12.588;2024-03-07T02:29:36;100912.09;;;24.80;54.74
14882;BME280;7533;51.278;12.588;2024-03-07T02:34:52;100903.44;;;24.75;55.02
14882;BME280;7533;51.278;12.588;2024-03-07T02:40:23;100895.97;;;24.66;54.98
14882;BME280;7533;51.278;12.588;2024-03-07T02:46:11;100892.84;;;24.60;55.28
14882;BME280;7533;51.278;12.588;2024-03-07T02:51:41;100892.31;;;24.54;55.56
14882;BME280;7533;51.278;12.588;2024-03-07T02:56:58;100892.66;;;24.50;55.78
14882;BME280;7533;51.278;12.588;2024-03-07T03:02:28;100894.22;;;24.41;56.00
14882;BME280;7533;51.278;12.588;2024-03-07T03:07:44;100896.47;;;24.35;56.22
14882;BME280;7533;51.278;12.588;2024-03-07T03:13:17;100897.66;;;24.31;56.11
14882;BME280;7533;51.278;12.588;2024-03-07T03:18:49;100889.19;;;24.22;56.55
14882;BME280;7533;51.278;12.588;2024-03-07T03:24:05;100892.34;;;24.16;56.45
14882;BME280;7533;51.278;12.588;2024-03-07T03:29:36;100888.97;;;24.13;56.67
14882;BME280;7533;51.278;12.588;2024-03-07T03:35:08;100890.28;;;24.07;56.59
14882;BME280;7533;51.278;12.588;2024-03-07T03:40:38;100889.66;;;24.04;56.84
14882;BME280;7533;51.278;12.588;2024-03-07T03:45:56;100889.00;;;24.00;56.96
14882;BME280;7533;51.278;12.588;2024-03-07T03:51:25;100882.94;;;23.96;57.05
14882;BME280;7533;51.278;12.588;2024-03-07T03:56:41;100884.03;;;23.94;57.02
14882;BME280;7533;51.278;12.588;2024-03-07T04:02:12;100878.94;;;23.89;57.34
14882;BME280;7533;51.278;12.588;2024-03-07T04:07:28;100875.59;;;23.86;57.25
14882;BME280;7533;51.278;12.588;2024-03-07T04:12:58;100881.19;;;23.83;57.39
14882;BME280;7533;51.278;12.588;2024-03-07T04:18:16;100877.84;;;23.79;57.44
14882;BME280;7533;51.278;12.588;2024-03-07T04:23:45;100878.81;;;23.78;57.47
14882;BME280;7533;51.278;12.588;2024-03-07T04:29:01;100879.91;;;23.75;57.55
14882;BME280;7533;51.278;12.588;2024-03-07T04:34:34;100877.63;;;23.69;57.51
14882;BME280;7533;51.278;12.588;2024-03-07T04:39:51;100890.47;;;23.66;57.50
14882;BME280;7533;51.278;12.588;2024-03-07T04:45:21;100892.44;;;23.64;57.51
14882;BME280;7533;51.278;12.588;2024-03-07T04:50:39;100891.72;;;23.60;57.38
14882;BME280;7533;51.278;12.588;2024-03-07T04:56:08;100900.81;;;23.59;57.40
14882;BME280;7533;51.278;12.588;2024-03-07T05:01:24;100897.44;;;23.56;57.65
14882;BME280;7533;51.278;12.588;2024-03-07T05:06:56;100897.75;;;23.51;57.54
14882;BME280;7533;51.278;12.588;2024-03-07T05:12:19;100903.28;;;23.49;57.60
14882;BME280;7533;51.278;12.588;2024-03-07T05:17:50;100901.66;;;23.47;57.53
14882;BME280;7533;51.278;12.588;2024-03-07T05:23:07;100908.13;;;23.44;57.66
14882;BME280;7533;51.278;12.588;2024-03-07T05:28:36;100901.09;;;23.42;57.61
14882;BME280;7533;51.278;12.588;2024-03-07T05:33:52;100906.63;;;23.40;57.67
14882;BME280;7533;51.278;12.588;2024-03-07T05:39:24;100915.66;;;23.39;57.64
14882;BME280;7533;51.278;12.588;2024-03-07T05:44:41;100916.00;;;23.35;57.81
14882;BME280;7533;51.278;12.588;2024-03-07T05:50:10;100912.63;;;23.31;57.79
14882;BME280;7533;51.278;12.588;2024-03-07T05:55:29;100917.28;;;23.29;57.86
14882;BME280;7533;51.278;12.588;2024-03-07T06:00:59;100927.41;;;23.26;57.98
14882;BME280;7533;51.278;12.588;2024-03-07T06:06:15;100929.25;;;23.25;57.85
14882;BME280;7533;51.278;12.588;2024-03-07T06:11:48;100934.97;;;23.20;57.89
14882;BME280;7533;51.278;12.588;2024-03-07T06:17:04;100930.53;;;23.19;58.01
14882;BME280;7533;51.278;12.588;2024-03-07T06:22:34;100931.59;;;23.17;57.89
14882;BME280;7533;51.278;12.588;2024-03-07T06:27:51;100942.38;;;23.17;57.97
14882;BME280;7533;51.278;12.588;2024-03-07T06:33:21;100944.22;;;23.16;58.00
14882;BME280;7533;51.278;12.588;2024-03-07T06:38:37;100947.91;;;23.15;58.06
14882;BME280;7533;51.278;12.588;2024-03-07T06:44:08;100956.66;;;23.19;57.95
14882;BME280;7533;51.278;12.588;2024-03-07T06:49:31;100953.09;;;23.18;57.97
14882;BME280;7533;51.278;12.588;2024-03-07T06:55:02;100950.41;;;23.18;57.92
14882;BME280;7533;51.278;12.588;2024-03-07T07:00:20;100957.66;;;23.18;58.00
14882;BME280;7533;51.278;12.588;2024-03-07T07:05:50;100953.00;;;23.20;58.07
14882;BME280;7533;51.278;12.588;2024-03-07T07:11:06;100964.00;;;23.17;58.00
14882;BME280;7533;51.278;12.588;2024-03-07T07:16:37;100965.75;;;23.18;57.96
14882;BME280;7533;51.278;12.588;2024-03-07T07:22:00;100965.75;;;23.18;58.01
14882;BME280;7533;51.278;12.588;2024-03-07T07:27:31;100973.84;;;23.18;58.03
14882;BME280;7533;51.278;12.588;2024-03-07T07:32:50;100968.44;;;23.18;58.05
14882;BME280;7533;51.278;12.588;2024-03-07T07:38:20;100971.22;;;23.16;58.02
14882;BME280;7533;51.278;12.588;2024-03-07T07:43:36;100961.28;;;23.17;58.01
14882;BME280;7533;51.278;12.588;2024-03-07T07:49:07;100961.28;;;23.17;58.03
14882;BME280;7533;51.278;12.588;2024-03-07T07:54:23;100964.69;;;23.06;57.09
14882;BME280;7533;51.278;12.588;2024-03-07T07:59:53;100975.88;;;20.59;43.12
14882;BME280;7533;51.278;12.588;2024-03-07T08:05:14;100984.72;;;19.94;43.08
14882;BME280;7533;51.278;12.588;2024-03-07T08:10:44;100967.84;;;21.69;42.78
14882;BME280;7533;51.278;12.588;2024-03-07T08:16:07;100976.78;;;21.99;43.71
14882;BME280;7533;51.278;12.588;2024-03-07T08:21:38;100972.16;;;22.17;44.70
14882;BME280;7533;51.278;12.588;2024-03-07T08:26:54;100973.13;;;22.30;45.78
14882;BME280;7533;51.278;12.588;2024-03-07T08:32:25;100976.19;;;22.38;46.93
14882;BME280;7533;51.278;12.588;2024-03-07T08:37:44;100974.75;;;22.47;48.27
14882;BME280;7533;51.278;12.588;2024-03-07T08:43:15;100971.50;;;22.56;49.71
14882;BME280;7533;51.278;12.588;2024-03-07T08:48:31;100966.47;;;22.64;50.99
14882;BME280;7533;51.278;12.588;2024-03-07T08:54:03;100966.06;;;22.70;51.78
14882;BME280;7533;51.278;12.588;2024-03-07T08:59:19;100967.53;;;22.76;52.67
14882;BME280;7533;51.278;12.588;2024-03-07T09:04:49;100971.75;;;22.80;52.99
14882;BME280;7533;51.278;12.588;2024-03-07T09:10:07;100968.97;;;22.82;54.01
14882;BME280;7533;51.278;12.588;2024-03-07T09:15:37;100965.22;;;22.84;54.63
14882;BME280;7533;51.278;12.588;2024-03-07T09:21:00;100959.69;;;22.86;55.42
14882;BME280;7533;51.278;12.588;2024-03-07T09:26:32;100965.09;;;22.86;56.14
14882;BME280;7533;51.278;12.588;2024-03-07T09:31:49;100954.31;;;22.86;56.40
14882;BME280;7533;51.278;12.588;2024-03-07T09:37:19;100964.06;;;22.88;56.23
14882;BME280;7533;51.278;12.588;2024-03-07T09:42:42;100948.72;;;22.89;56.04
14882;BME280;7533;51.278;12.588;2024-03-07T09:48:14;100961.06;;;22.93;56.01
14882;BME280;7533;51.278;12.588;2024-03-07T09:53:32;100971.75;;;22.94;56.11
14882;BME280;7533;51.278;12.588;2024-03-07T09:59:04;100954.63;;;22.95;56.21
14882;BME280;7533;51.278;12.588;2024-03-07T10:04:29;100953.53;;;22.98;56.46
14882;BME280;7533;51.278;12.588;2024-03-07T10:09:58;100957.97;;;22.99;56.58
14882;BME280;7533;51.278;12.588;2024-03-07T10:15:35;100959.91;;;22.97;56.66
14882;BME280;7533;51.278;12.588;2024-03-07T10:20:53;100975.03;;;23.00;56.97
14882;BME280;7533;51.278;12.588;2024-03-07T10:26:25;100964.22;;;23.00;56.71
14882;BME280;7533;51.278;12.588;2024-03-07T10:31:43;100959.81;;;22.99;56.67
14882;BME280;7533;51.278;12.588;2024-03-07T10:37:19;100952.69;;;22.98;56.79
14882;BME280;7533;51.278;12.588;2024-03-07T10:42:37;100949.22;;;22.95;56.51
14882;BME280;7533;51.278;12.588;2024-03-07T10:48:11;100937.13;;;22.87;55.20
14882;BME280;7533;51.278;12.588;2024-03-07T10:53:42;100943.50;;;22.86;55.17
14882;BME280;7533;51.278;12.588;2024-03-07T10:59:16;100949.88;;;22.85;54.92
14882;BME280;7533;51.278;12.588;2024-03-07T11:04:35;100939.84;;;22.87;55.19
14882;BME280;7533;51.278;12.588;2024-03-07T11:10:05;100935.22;;;22.89;55.33
14882;BME280;7533;51.278;12.588;2024-03-07T11:15:33;100926.19;;;22.90;55.43
14882;BME280;7533;51.278;12.588;2024-03-07T11:21:05;100931.47;;;22.91;55.90
14882;BME280;7533;51.278;12.588;2024-03-07T11:26:22;100923.38;;;22.91;56.08
14882;BME280;7533;51.278;12.588;2024-03-07T11:31:53;100926.94;;;22.92;56.03
14882;BME280;7533;51.278;12.588;2024-03-07T11:37:16;100923.28;;;22.93;56.24
14882;BME280;7533;51.278;12.588;2024-03-07T11:42:47;100920.56;;;22.93;56.29
14882;BME280;7533;51.278;12.588;2024-03-07T11:48:11;100919.59;;;22.94;56.22
14882;BME280;7533;51.278;12.588;2024-03-07T11:53:43;100910.63;;;22.93;56.21
14882;BME280;7533;51.278;12.588;2024-03-07T11:59:02;100918.75;;;22.93;56.04
14882;BME280;7533;51.278;12.588;2024-03-07T12:04:35;100906.31;;;22.91;56.03
14882;BME280;7533;51.278;12.588;2024-03-07T12:09:52;100907.19;;;22.91;56.04
14882;BME280;7533;51.278;12.588;2024-03-07T12:15:23;100910.00;;;22.90;56.15
14882;BME280;7533;51.278;12.588;2024-03-07T12:20:54;100902.75;;;22.90;56.10
14882;BME280;7533;51.278;12.588;2024-03-07T12:26:19;100905.34;;;22.92;56.03
14882;BME280;7533;51.278;12.588;2024-03-07T12:31:52;100909.03;;;22.91;55.98
14882;BME280;7533;51.278;12.588;2024-03-07T12:37:09;100908.22;;;22.89;56.09
14882;BME280;7533;51.278;12.588;2024-03-07T12:42:40;100903.69;;;22.89;56.15
14882;BME280;7533;51.278;12.588;2024-03-07T12:47:59;100894.75;;;22.89;56.18
14882;BME280;7533;51.278;12.588;2024-03-07T12:53:29;100893.69;;;22.91;56.25
14882;BME280;7533;51.278;12.588;2024-03-07T12:58:47;100881.72;;;22.95;56.28
14882;BME280;7533;51.278;12.588;2024-03-07T13:04:18;100873.78;;;23.07;56.31
14882;BME280;7533;51.278;12.588;2024-03-07T13:09:41;100871.72;;;23.10;56.26
14882;BME280;7533;51.278;12.588;2024-03-07T13:15:12;100866.53;;;23.07;56.32
14882;BME280;7533;51.278;12.588;2024-03-07T13:20:44;100884.47;;;23.08;56.42
14882;BME280;7533;51.278;12.588;2024-03-07T13:26:01;100873.78;;;23.07;56.42
14882;BME280;7533;51.278;12.588;2024-03-07T13:31:40;100872.88;;;23.06;56.54
14882;BME280;7533;51.278;12.588;2024-03-07T13:36:57;100871.94;;;23.07;56.59
14882;BME280;7533;51.278;12.588;2024-03-07T13:42:27;100868.72;;;23.15;56.88
14882;BME280;7533;51.278;12.588;2024-03-07T13:47:44;100873.34;;;23.53;56.02
14882;BME280;7533;51.278;12.588;2024-03-07T13:53:14;100858.28;;;23.75;55.56
14882;BME280;7533;51.278;12.588;2024-03-07T13:58:54;100850.16;;;23.88;55.44
14882;BME280;7533;51.278;12.588;2024-03-07T14:05:00;100855.91;;;23.96;55.33
14882;BME280;7533;51.278;12.588;2024-03-07T14:10:57;100852.31;;;23.96;55.47
14882;BME280;7533;51.278;12.588;2024-03-07T14:16:55;100847.53;;;24.12;55.83
14882;BME280;7533;51.278;12.588;2024-03-07T14:22:47;100850.25;;;24.25;56.24
14882;BME280;7533;51.278;12.588;2024-03-07T14:28:19;100843.75;;;24.40;56.34
14882;BME280;7533;51.278;12.588;2024-03-07T14:34:08;100843.28;;;24.46;56.35
14882;BME280;7533;51.278;12.588;2024-03-07T14:39:29;100838.88;;;24.45;56.34
14882;BME280;7533;51.278;12.588;2024-03-07T14:45:01;100835.69;;;24.51;56.69
14882;BME280;7533;51.278;12.588;2024-03-07T14:50:24;100826.06;;;24.60;56.26
14882;BME280;7533;51.278;12.588;2024-03-07T14:55:59;100824.84;;;24.64;56.61
14882;BME280;7533;51.278;12.588;2024-03-07T15:01:15;100815.97;;;24.62;56.64
14882;BME280;7533;51.278;12.588;2024-03-07T15:06:48;100813.16;;;24.64;56.80
14882;BME280;7533;51.278;12.588;2024-03-07T15:12:09;100805.44;;;24.70;56.92
14882;BME280;7533;51.278;12.588;2024-03-07T15:17:38;100801.41;;;24.76;56.55
14882;BME280;7533;51.278;12.588;2024-03-07T15:22:55;100802.34;;;24.88;56.79
14882;BME280;7533;51.278;12.588;2024-03-07T15:28:27;100799.50;;;24.89;57.04
14882;BME280;7533;51.278;12.588;2024-03-07T15:33:51;100805.50;;;24.82;56.94
14882;BME280;7533;51.278;12.588;2024-03-07T15:39:21;100803.38;;;24.98;56.94
14882;BME280;7533;51.278;12.588;2024-03-07T15:44:43;100798.47;;;25.03;56.57
14882;BME280;7533;51.278;12.588;2024-03-07T15:50:13;100792.16;;;25.02;56.73
14882;BME280;7533;51.278;12.588;2024-03-07T15:55:30;100794.38;;;24.97;57.47
14882;BME280;7533;51.278;12.588;2024-03-07T16:01:01;100796.97;;;24.99;57.49
14882;BME280;7533;51.278;12.588;2024-03-07T16:06:24;100793.06;;;25.03;58.00
14882;BME280;7533;51.278;12.588;2024-03-07T16:11:54;100803.75;;;25.04;58.04
14882;BME280;7533;51.278;12.588;2024-03-07T16:17:12;100797.44;;;24.93;57.56
14882;BME280;7533;51.278;12.588;2024-03-07T16:22:45;100788.28;;;24.83;57.58
14882;BME280;7533;51.278;12.588;2024-03-07T16:28:02;100799.97;;;24.83;56.80
14882;BME280;7533;51.278;12.588;2024-03-07T16:33:34;100788.56;;;24.67;57.45
14882;BME280;7533;51.278;12.588;2024-03-07T16:38:51;100784.81;;;24.57;57.56
14882;BME280;7533;51.278;12.588;2024-03-07T16:44:20;100790.63;;;24.63;57.25
14882;BME280;7533;51.278;12.588;2024-03-07T16:49:39;100795.63;;;24.57;57.45
14882;BME280;7533;51.278;12.588;2024-03-07T16:55:11;100801.31;;;24.41;57.63
14882;BME280;7533;51.278;12.588;2024-03-07T17:00:28;100798.28;;;24.33;57.80
14882;BME280;7533;51.278;12.588;2024-03-07T17:06:02;100798.22;;;24.21;58.07
14882;BME280;7533;51.278;12.588;2024-03-07T17:11:25;100809.16;;;24.20;59.01
14882;BME280;7533;51.278;12.588;2024-03-07T17:16:55;100804.19;;;24.14;60.00
14882;BME280;7533;51.278;12.588;2024-03-07T17:22:26;100801.03;;;24.07;60.37
14882;BME280;7533;51.278;12.588;2024-03-07T17:27:50;100802.25;;;24.03;60.59
14882;BME280;7533;51.278;12.588;2024-03-07T17:33:22;100796.84;;;24.03;60.36
14882;BME280;7533;51.278;12.588;2024-03-07T17:38:40;100803.00;;;24.05;59.96
14882;BME280;7533;51.278;12.588;2024-03-07T17:44:10;100800.00;;;23.97;60.18
14882;BME280;7533;51.278;12.588;2024-03-07T17:49:40;100815.34;;;23.96;60.05
14882;BME280;7533;51.278;12.588;2024-03-07T17:54:57;100816.66;;;23.91;59.76
14882;BME280;7533;51.278;12.588;2024-03-07T18:00:30;100813.50;;;23.84;59.24
14882;BME280;7533;51.278;12.588;2024-03-07T18:05:47;100820.97;;;23.81;59.06
14882;BME280;7533;51.278;12.588;2024-03-07T18:11:18;100815.56;;;23.81;58.82
14882;BME280;7533;51.278;12.588;2024-03-07T18:16:42;100815.34;;;23.71;59.27
14882;BME280;7533;51.278;12.588;2024-03-07T18:22:12;100809.41;;;23.66;59.50
14882;BME280;7533;51.278;12.588;2024-03-07T18:27:32;100810.38;;;23.65;59.31
14882;BME280;7533;51.278;12.588;2024-03-07T18:33:03;100817.25;;;23.56;59.40
14882;BME280;7533;51.278;12.588;2024-03-07T18:38:20;100811.28;;;23.51;59.18
14882;BME280;7533;51.278;12.588;2024-03-07T18:43:51;100821.34;;;23.49;58.93
14882;BME280;7533;51.278;12.588;2024-03-07T18:49:16;100827.63;;;23.49;58.60
14882;BME280;7533;51.278;12.588;2024-03-07T18:54:46;100824.69;;;23.40;58.43
14882;BME280;7533;51.278;12.588;2024-03-07T19:00:04;100822.22;;;23.37;58.15
14882;BME280;7533;51.278;12.588;2024-03-07T19:05:49;100827.06;;;23.32;57.92
14882;BME280;7533;51.278;12.588;2024-03-07T19:11:07;100822.09;;;23.38;57.96
14882;BME280;7533;51.278;12.588;2024-03-07T19:16:38;100824.16;;;23.35;57.69
14882;BME280;7533;51.278;12.588;2024-03-07T19:22:08;100821.47;;;23.35;57.78
14882;BME280;7533;51.278;12.588;2024-03-07T19:27:31;100824.38;;;23.44;57.71
14882;BME280;7533;51.278;12.588;2024-03-07T19:33:05;100818.34;;;23.54;57.69
14882;BME280;7533;51.278;12.588;2024-03-07T19:38:30;100817.63;;;23.64;57.50
14882;BME280;7533;51.278;12.588;2024-03-07T19:44:00;100806.06;;;23.75;57.40
14882;BME280;7533;51.278;12.588;2024-03-07T19:49:17;100802.59;;;23.86;57.17
14882;BME280;7533;51.278;12.588;2024-03-07T19:54:47;100814.47;;;23.96;56.85
14882;BME280;7533;51.278;12.588;2024-03-07T20:00:04;100803.75;;;24.07;56.79
14882;BME280;7533;51.278;12.588;2024-03-07T20:05:38;100813.03;;;24.16;56.66
14882;BME280;7533;51.278;12.588;2024-03-07T20:11:01;100810.41;;;24.27;56.32
14882;BME280;7533;51.278;12.588;2024-03-07T20:16:37;100801.69;;;24.36;56.04
14882;BME280;7533;51.278;12.588;2024-03-07T20:22:08;100796.56;;;24.44;55.94
14882;BME280;7533;51.278;12.588;2024-03-07T20:27:24;100795.88;;;24.53;55.79
14882;BME280;7533;51.278;12.588;2024-03-07T20:32:56;100782.63;;;24.62;55.53
14882;BME280;7533;51.278;12.588;2024-03-07T20:38:14;100794.63;;;24.70;55.22
14882;BME280;7533;51.278;12.588;2024-03-07T20:43:44;100792.19;;;24.78;55.20
14882;BME280;7533;51.278;12.588;2024-03-07T20:49:01;100786.56;;;24.82;54.85
14882;BME280;7533;51.278;12.588;2024-03-07T20:54:33;100786.59;;;24.93;54.92
14882;BME280;7533;51.278;12.588;2024-03-07T20:59:57;100784.94;;;25.03;54.33
14882;BME280;7533;51.278;12.588;2024-03-07T21:05:29;100772.66;;;25.10;54.33
14882;BME280;7533;51.278;12.588;2024-03-07T21:10:48;100765.06;;;25.15;54.09
14882;BME280;7533;51.278;12.588;2024-03-07T21:16:17;100760.00;;;25.22;54.05
14882;BME280;7533;51.278;12.588;2024-03-07T21:21:49;100755.97;;;25.27;54.08
14882;BME280;7533;51.278;12.588;2024-03-07T21:27:07;100749.31;;;25.31;53.66
14882;BME280;7533;51.278;12.588;2024-03-07T21:32:36;100747.13;;;25.37;53.32
14882;BME280;7533;51.278;12.588;2024-03-07T21:37:52;100741.94;;;25.45;53.22
14882;BME280;7533;51.278;12.588;2024-03-07T21:43:25;100743.94;;;25.54;53.42
14882;BME280;7533;51.278;12.588;2024-03-07T21:48:40;100735.31;;;25.60;53.20
14882;BME280;7533;51.278;12.588;2024-03-07T21:54:10;100743.81;;;25.67;53.08
14882;BME280;7533;51.278;12.588;2024-03-07T21:59:28;100727.28;;;25.70;53.04
14882;BME280;7533;51.278;12.588;2024-03-07T22:04:57;100728.69;;;25.75;53.19
14882;BME280;7533;51.278;12.588;2024-03-07T22:10:16;100732.75;;;25.81;53.25
14882;BME280;7533;51.278;12.588;2024-03-07T22:15:47;100729.94;;;25.82;53.24
14882;BME280;7533;51.278;12.588;2024-03-07T22:21:17;100725.50;;;25.81;53.25
14882;BME280;7533;51.278;12.588;2024-03-07T22:26:34;100724.00;;;25.77;53.32
14882;BME280;7533;51.278;12.588;2024-03-07T22:32:05;100720.91;;;25.71;53.37
14882;BME280;7533;51.278;12.588;2024-03-07T22:37:22;100719.78;;;25.62;53.69
14882;BME280;7533;51.278;12.588;2024-03-07T22:42:52;100730.38;;;25.54;53.83
14882;BME280;7533;51.278;12.588;2024-03-07T22:48:09;100727.28;;;25.47;53.60
14882;BME280;7533;51.278;12.588;2024-03-07T22:53:39;100718.03;;;25.39;54.10
14882;BME280;7533;51.278;12.588;2024-03-07T22:58:55;100705.13;;;25.31;54.17
14882;BME280;7533;51.278;12.588;2024-03-07T23:04:26;100700.28;;;25.23;54.76
14882;BME280;7533;51.278;12.588;2024-03-07T23:09:44;100693.97;;;25.12;54.70
14882;BME280;7533;51.278;12.588;2024-03-07T23:15:15;100699.13;;;25.03;55.43
14882;BME280;7533;51.278;12.588;2024-03-07T23:20:32;100699.69;;;24.96;55.71
14882;BME280;7533;51.278;12.588;2024-03-07T23:26:03;100694.88;;;24.88;55.87
14882;BME280;7533;51.278;12.588;2024-03-07T23:31:20;100701.97;;;24.78;56.21
14882;BME280;7533;51.278;12.588;2024-03-07T23:36:53;100692.84;;;24.68;56.34
14882;BME280;7533;51.278;12.588;2024-03-07T23:42:16;100690.00;;;24.58;56.73
14882;BME280;7533;51.278;12.588;2024-03-07T23:47:46;100683.41;;;24.49;56.85
14882;BME280;7533;51.278;12.588;2024-03-07T23:53:03;100683.88;;;24.43;57.24
14882;BME280;7533;51.278;12.588;2024-03-07T23:58:34;100689.88;;;24.36;57.28
